sensor_id;sensor_type;location;lat;lon;timestamp;P1;durP1;ratioP1;P2;durP2;ratioP2
39728;SDS011;25402;42.004;23.088;2022-07-23T00:02:12;11.23;;;4.85;;
39728;SDS011;25402;42.004;23.088;2022-07-23T00:04:39;8.90;;;4.82;;
39728;SDS011;25402;42.004;23.088;2022-07-23T00:07:05;9.55;;;4.85;;
39728;SDS011;25402;42.004;23.088;2022-07-23T00:09:32;10.48;;;4.53;;
39728;SDS011;25402;42.004;23.088;2022-07-23T00:11:58;12.43;;;4.40;;
39728;SDS011;25402;42.004;23.088;2022-07-23T00:14:25;12.20;;;4.40;;
39728;SDS011;25402;42.004;23.088;2022-07-23T00:16:51;10.60;;;4.85;;
39728;SDS011;25402;42.004;23.088;2022-07-23T00:19:18;13.23;;;4.90;;
39728;SDS011;25402;42.004;23.088;2022-07-23T00:21:45;10.75;;;5.35;;
39728;SDS011;25402;42.004;23.088;2022-07-23T00:24:11;13.02;;;6.35;;
39728;SDS011;25402;42.004;23.088;2022-07-23T00:26:38;11.82;;;5.65;;
39728;SDS011;25402;42.004;23.088;2022-07-23T00:29:04;9.95;;;6.00;;
39728;SDS011;25402;42.004;23.088;2022-07-23T00:31:31;11.07;;;5.50;;
39728;SDS011;25402;42.004;23.088;2022-07-23T00:33:57;15.43;;;6.40;;
39728;SDS011;25402;42.004;23.088;2022-07-23T00:36:26;16.08;;;6.05;;
39728;SDS011;25402;42.004;23.088;2022-07-23T00:38:53;8.75;;;5.32;;
39728;SDS011;25402;42.004;23.088;2022-07-23T00:41:20;11.18;;;4.47;;
39728;SDS011;25402;42.004;23.088;2022-07-23T00:43:46;10.30;;;5.60;;
39728;SDS011;25402;42.004;23.088;2022-07-23T00:46:12;10.02;;;4.90;;
39728;SDS011;25402;42.004;23.088;2022-07-23T00:48:39;7.30;;;4.82;;
39728;SDS011;25402;42.004;23.088;2022-07-23T00:51:05;15.05;;;5.03;;
39728;SDS011;25402;42.004;23.088;2022-07-23T00:53:32;12.82;;;5.18;;
39728;SDS011;25402;42.004;23.088;2022-07-23T00:56:00;6.40;;;4.40;;
39728;SDS011;25402;42.004;23.088;2022-07-23T00:58:26;11.13;;;4.50;;
39728;SDS011;25402;42.004;23.088;2022-07-23T01:00:53;13.98;;;5.75;;
39728;SDS011;25402;42.004;23.088;2022-07-23T01:03:20;10.95;;;5.88;;
39728;SDS011;25402;42.004;23.088;2022-07-23T01:05:47;15.35;;;5.40;;
39728;SDS011;25402;42.004;23.088;2022-07-23T01:08:14;13.02;;;5.32;;
39728;SDS011;25402;42.004;23.088;2022-07-23T01:10:42;13.50;;;6.00;;
39728;SDS011;25402;42.004;23.088;2022-07-23T01:13:09;11.25;;;6.07;;
39728;SDS011;25402;42.004;23.088;2022-07-23T01:15:37;11.00;;;5.75;;
39728;SDS011;25402;42.004;23.088;2022-07-23T01:18:05;16.80;;;7.05;;
39728;SDS011;25402;42.004;23.088;2022-07-23T01:20:32;9.63;;;5.72;;
39728;SDS011;25402;42.004;23.088;2022-07-23T01:23:00;11.25;;;5.18;;
39728;SDS011;25402;42.004;23.088;2022-07-23T01:25:28;14.20;;;5.32;;
39728;SDS011;25402;42.004;23.088;2022-07-23T01:27:58;10.90;;;5.20;;
39728;SDS011;25402;42.004;23.088;2022-07-23T01:30:24;7.97;;;5.80;;
39728;SDS011;25402;42.004;23.088;2022-07-23T01:32:53;13.15;;;6.13;;
39728;SDS011;25402;42.004;23.088;2022-07-23T01:35:20;12.43;;;6.47;;
39728;SDS011;25402;42.004;23.088;2022-07-23T01:37:46;26.00;;;6.65;;
39728;SDS011;25402;42.004;23.088;2022-07-23T01:40:14;17.48;;;6.53;;
39728;SDS011;25402;42.004;23.088;2022-07-23T01:42:40;13.02;;;5.68;;
39728;SDS011;25402;42.004;23.088;2022-07-23T01:45:07;13.75;;;5.65;;
39728;SDS011;25402;42.004;23.088;2022-07-23T01:47:34;15.52;;;6.40;;
39728;SDS011;25402;42.004;23.088;2022-07-23T01:50:01;17.95;;;7.53;;
39728;SDS011;25402;42.004;23.088;2022-07-23T01:52:28;15.35;;;6.25;;
39728;SDS011;25402;42.004;23.088;2022-07-23T01:54:54;14.27;;;6.72;;
39728;SDS011;25402;42.004;23.088;2022-07-23T01:57:22;16.15;;;6.53;;
39728;SDS011;25402;42.004;23.088;2022-07-23T01:59:48;15.07;;;6.70;;
39728;SDS011;25402;42.004;23.088;2022-07-23T02:02:15;19.13;;;5.53;;
39728;SDS011;25402;42.004;23.088;2022-07-23T02:04:41;21.20;;;5.78;;
39728;SDS011;25402;42.004;23.088;2022-07-23T02:07:08;16.95;;;6.00;;
39728;SDS011;25402;42.004;23.088;2022-07-23T02:09:34;20.23;;;6.13;;
39728;SDS011;25402;42.004;23.088;2022-07-23T02:12:01;13.27;;;5.55;;
39728;SDS011;25402;42.004;23.088;2022-07-23T02:14:31;9.75;;;5.78;;
39728;SDS011;25402;42.004;23.088;2022-07-23T02:16:57;15.65;;;5.60;;
39728;SDS011;25402;42.004;23.088;2022-07-23T02:19:24;23.33;;;5.90;;
39728;SDS011;25402;42.004;23.088;2022-07-23T02:21:51;14.90;;;6.47;;
39728;SDS011;25402;42.004;23.088;2022-07-23T02:24:17;14.50;;;5.95;;
39728;SDS011;25402;42.004;23.088;2022-07-23T02:26:44;11.00;;;5.85;;
39728;SDS011;25402;42.004;23.088;2022-07-23T02:29:10;17.48;;;5.70;;
39728;SDS011;25402;42.004;23.088;2022-07-23T02:31:37;13.93;;;6.03;;
39728;SDS011;25402;42.004;23.088;2022-07-23T02:34:04;19.88;;;5.95;;
39728;SDS011;25402;42.004;23.088;2022-07-23T02:36:31;13.52;;;5.85;;
39728;SDS011;25402;42.004;23.088;2022-07-23T02:38:59;12.50;;;5.85;;
39728;SDS011;25402;42.004;23.088;2022-07-23T02:41:26;22.27;;;6.68;;
39728;SDS011;25402;42.004;23.088;2022-07-23T02:43:52;14.45;;;5.80;;
39728;SDS011;25402;42.004;23.088;2022-07-23T02:46:18;16.13;;;6.30;;
39728;SDS011;25402;42.004;23.088;2022-07-23T02:48:46;18.60;;;6.25;;
39728;SDS011;25402;42.004;23.088;2022-07-23T02:51:13;16.35;;;6.07;;
39728;SDS011;25402;42.004;23.088;2022-07-23T02:53:39;22.35;;;7.80;;
39728;SDS011;25402;42.004;23.088;2022-07-23T02:56:06;36.03;;;7.97;;
39728;SDS011;25402;42.004;23.088;2022-07-23T02:58:32;24.52;;;7.72;;
39728;SDS011;25402;42.004;23.088;2022-07-23T03:00:59;14.55;;;6.38;;
39728;SDS011;25402;42.004;23.088;2022-07-23T03:03:26;13.18;;;5.90;;
39728;SDS011;25402;42.004;23.088;2022-07-23T03:05:53;13.02;;;5.65;;
39728;SDS011;25402;42.004;23.088;2022-07-23T03:08:20;23.98;;;5.65;;
39728;SDS011;25402;42.004;23.088;2022-07-23T03:10:46;15.88;;;6.40;;
39728;SDS011;25402;42.004;23.088;2022-07-23T03:13:13;12.30;;;6.18;;
39728;SDS011;25402;42.004;23.088;2022-07-23T03:15:40;15.98;;;7.53;;
39728;SDS011;25402;42.004;23.088;2022-07-23T03:18:07;13.02;;;6.03;;
39728;SDS011;25402;42.004;23.088;2022-07-23T03:20:34;22.55;;;7.18;;
39728;SDS011;25402;42.004;23.088;2022-07-23T03:23:01;18.42;;;7.15;;
39728;SDS011;25402;42.004;23.088;2022-07-23T03:25:28;18.45;;;7.25;;
39728;SDS011;25402;42.004;23.088;2022-07-23T03:27:56;14.95;;;6.72;;
39728;SDS011;25402;42.004;23.088;2022-07-23T03:30:24;16.83;;;6.80;;
39728;SDS011;25402;42.004;23.088;2022-07-23T03:32:50;22.55;;;6.75;;
39728;SDS011;25402;42.004;23.088;2022-07-23T03:35:17;21.27;;;7.60;;
39728;SDS011;25402;42.004;23.088;2022-07-23T03:37:43;21.45;;;7.80;;
39728;SDS011;25402;42.004;23.088;2022-07-23T03:40:11;22.25;;;7.30;;
39728;SDS011;25402;42.004;23.088;2022-07-23T03:42:39;20.08;;;6.63;;
39728;SDS011;25402;42.004;23.088;2022-07-23T03:45:07;21.75;;;6.80;;
39728;SDS011;25402;42.004;23.088;2022-07-23T03:47:35;19.60;;;6.90;;
39728;SDS011;25402;42.004;23.088;2022-07-23T03:50:02;20.40;;;6.88;;
39728;SDS011;25402;42.004;23.088;2022-07-23T03:52:29;13.35;;;6.47;;
39728;SDS011;25402;42.004;23.088;2022-07-23T03:54:56;25.95;;;7.43;;
39728;SDS011;25402;42.004;23.088;2022-07-23T03:57:25;19.23;;;7.38;;
39728;SDS011;25402;42.004;23.088;2022-07-23T03:59:52;17.20;;;6.50;;
39728;SDS011;25402;42.004;23.088;2022-07-23T04:02:20;15.02;;;6.53;;
39728;SDS011;25402;42.004;23.088;2022-07-23T04:04:46;10.93;;;6.03;;
39728;SDS011;25402;42.004;23.088;2022-07-23T04:07:13;19.85;;;6.88;;
39728;SDS011;25402;42.004;23.088;2022-07-23T04:09:40;14.35;;;6.68;;
39728;SDS011;25402;42.004;23.088;2022-07-23T04:12:07;17.48;;;6.70;;
39728;SDS011;25402;42.004;23.088;2022-07-23T04:14:34;16.42;;;6.35;;
39728;SDS011;25402;42.004;23.088;2022-07-23T04:17:01;20.40;;;6.82;;
39728;SDS011;25402;42.004;23.088;2022-07-23T04:19:27;17.95;;;6.50;;
39728;SDS011;25402;42.004;23.088;2022-07-23T04:21:55;15.40;;;6.38;;
39728;SDS011;25402;42.004;23.088;2022-07-23T04:24:22;21.65;;;7.13;;
39728;SDS011;25402;42.004;23.088;2022-07-23T04:26:48;19.90;;;6.35;;
39728;SDS011;25402;42.004;23.088;2022-07-23T04:29:15;16.75;;;5.78;;
39728;SDS011;25402;42.004;23.088;2022-07-23T04:31:42;18.85;;;6.10;;
39728;SDS011;25402;42.004;23.088;2022-07-23T04:34:08;17.88;;;6.43;;
39728;SDS011;25402;42.004;23.088;2022-07-23T04:36:35;18.23;;;6.05;;
39728;SDS011;25402;42.004;23.088;2022-07-23T04:39:01;13.85;;;6.80;;
39728;SDS011;25402;42.004;23.088;2022-07-23T04:41:27;15.25;;;6.85;;
39728;SDS011;25402;42.004;23.088;2022-07-23T04:43:54;13.98;;;6.07;;
39728;SDS011;25402;42.004;23.088;2022-07-23T04:46:20;20.38;;;6.65;;
39728;SDS011;25402;42.004;23.088;2022-07-23T04:48:47;24.20;;;7.13;;
39728;SDS011;25402;42.004;23.088;2022-07-23T04:51:14;23.45;;;6.95;;
39728;SDS011;25402;42.004;23.088;2022-07-23T04:53:40;17.02;;;6.55;;
39728;SDS011;25402;42.004;23.088;2022-07-23T04:56:07;22.70;;;6.75;;
39728;SDS011;25402;42.004;23.088;2022-07-23T04:58:33;20.20;;;9.23;;
39728;SDS011;25402;42.004;23.088;2022-07-23T05:01:00;16.20;;;8.10;;
39728;SDS011;25402;42.004;23.088;2022-07-23T05:03:26;19.50;;;8.30;;
39728;SDS011;25402;42.004;23.088;2022-07-23T05:05:54;25.27;;;8.25;;
39728;SDS011;25402;42.004;23.088;2022-07-23T05:08:20;15.43;;;7.35;;
39728;SDS011;25402;42.004;23.088;2022-07-23T05:10:48;16.45;;;7.07;;
39728;SDS011;25402;42.004;23.088;2022-07-23T05:13:15;18.15;;;7.13;;
39728;SDS011;25402;42.004;23.088;2022-07-23T05:15:42;21.23;;;6.32;;
39728;SDS011;25402;42.004;23.088;2022-07-23T05:18:08;16.90;;;6.13;;
39728;SDS011;25402;42.004;23.088;2022-07-23T05:20:35;17.00;;;6.13;;
39728;SDS011;25402;42.004;23.088;2022-07-23T05:23:02;21.65;;;8.80;;
39728;SDS011;25402;42.004;23.088;2022-07-23T05:25:29;10.20;;;6.45;;
39728;SDS011;25402;42.004;23.088;2022-07-23T05:27:55;24.55;;;6.60;;
39728;SDS011;25402;42.004;23.088;2022-07-23T05:30:22;13.15;;;6.65;;
39728;SDS011;25402;42.004;23.088;2022-07-23T05:32:48;20.25;;;6.35;;
39728;SDS011;25402;42.004;23.088;2022-07-23T05:35:15;13.68;;;6.00;;
39728;SDS011;25402;42.004;23.088;2022-07-23T05:37:42;13.63;;;6.60;;
39728;SDS011;25402;42.004;23.088;2022-07-23T05:40:10;19.15;;;5.88;;
39728;SDS011;25402;42.004;23.088;2022-07-23T05:42:38;18.00;;;6.07;;
39728;SDS011;25402;42.004;23.088;2022-07-23T05:45:06;15.02;;;5.93;;
39728;SDS011;25402;42.004;23.088;2022-07-23T05:47:39;12.98;;;5.78;;
39728;SDS011;25402;42.004;23.088;2022-07-23T05:50:06;18.00;;;6.03;;
39728;SDS011;25402;42.004;23.088;2022-07-23T05:52:33;14.55;;;5.95;;
39728;SDS011;25402;42.004;23.088;2022-07-23T05:54:59;19.35;;;5.72;;
39728;SDS011;25402;42.004;23.088;2022-07-23T05:57:26;17.20;;;5.80;;
39728;SDS011;25402;42.004;23.088;2022-07-23T05:59:53;11.85;;;5.80;;
39728;SDS011;25402;42.004;23.088;2022-07-23T06:02:19;11.52;;;6.38;;
39728;SDS011;25402;42.004;23.088;2022-07-23T06:04:48;14.55;;;6.15;;
39728;SDS011;25402;42.004;23.088;2022-07-23T06:07:14;24.00;;;6.72;;
39728;SDS011;25402;42.004;23.088;2022-07-23T06:09:41;13.38;;;6.03;;
39728;SDS011;25402;42.004;23.088;2022-07-23T06:12:08;16.80;;;5.78;;
39728;SDS011;25402;42.004;23.088;2022-07-23T06:14:35;16.35;;;5.95;;
39728;SDS011;25402;42.004;23.088;2022-07-23T06:17:01;13.15;;;5.97;;
39728;SDS011;25402;42.004;23.088;2022-07-23T06:19:28;17.77;;;5.90;;
39728;SDS011;25402;42.004;23.088;2022-07-23T06:21:54;13.38;;;6.30;;
39728;SDS011;25402;42.004;23.088;2022-07-23T06:24:21;14.98;;;6.57;;
39728;SDS011;25402;42.004;23.088;2022-07-23T06:26:47;14.82;;;7.22;;
39728;SDS011;25402;42.004;23.088;2022-07-23T06:29:14;22.75;;;6.93;;
39728;SDS011;25402;42.004;23.088;2022-07-23T06:31:41;17.33;;;7.20;;
39728;SDS011;25402;42.004;23.088;2022-07-23T06:34:07;13.73;;;7.03;;
39728;SDS011;25402;42.004;23.088;2022-07-23T06:36:34;15.30;;;6.72;;
39728;SDS011;25402;42.004;23.088;2022-07-23T06:39:00;15.88;;;7.05;;
39728;SDS011;25402;42.004;23.088;2022-07-23T06:41:26;11.93;;;5.78;;
39728;SDS011;25402;42.004;23.088;2022-07-23T06:43:53;20.63;;;6.50;;
39728;SDS011;25402;42.004;23.088;2022-07-23T06:46:20;19.42;;;6.00;;
39728;SDS011;25402;42.004;23.088;2022-07-23T06:48:47;16.58;;;6.65;;
39728;SDS011;25402;42.004;23.088;2022-07-23T06:51:14;19.08;;;6.43;;
39728;SDS011;25402;42.004;23.088;2022-07-23T06:53:40;13.98;;;5.32;;
39728;SDS011;25402;42.004;23.088;2022-07-23T06:56:07;10.73;;;5.47;;
39728;SDS011;25402;42.004;23.088;2022-07-23T06:58:33;13.77;;;5.60;;
39728;SDS011;25402;42.004;23.088;2022-07-23T07:01:00;13.25;;;5.63;;
39728;SDS011;25402;42.004;23.088;2022-07-23T07:03:27;16.13;;;5.60;;
39728;SDS011;25402;42.004;23.088;2022-07-23T07:05:54;19.08;;;5.93;;
39728;SDS011;25402;42.004;23.088;2022-07-23T07:08:22;15.85;;;5.55;;
39728;SDS011;25402;42.004;23.088;2022-07-23T07:10:49;19.90;;;6.90;;
39728;SDS011;25402;42.004;23.088;2022-07-23T07:13:15;9.13;;;5.70;;
39728;SDS011;25402;42.004;23.088;2022-07-23T07:15:42;15.15;;;6.13;;
39728;SDS011;25402;42.004;23.088;2022-07-23T07:18:09;14.18;;;6.18;;
39728;SDS011;25402;42.004;23.088;2022-07-23T07:20:35;15.52;;;5.97;;
39728;SDS011;25402;42.004;23.088;2022-07-23T07:23:02;17.20;;;6.18;;
39728;SDS011;25402;42.004;23.088;2022-07-23T07:25:29;28.70;;;6.70;;
39728;SDS011;25402;42.004;23.088;2022-07-23T07:27:55;16.00;;;6.10;;
39728;SDS011;25402;42.004;23.088;2022-07-23T07:30:22;13.98;;;6.00;;
39728;SDS011;25402;42.004;23.088;2022-07-23T07:32:48;17.42;;;6.60;;
39728;SDS011;25402;42.004;23.088;2022-07-23T07:35:15;13.25;;;5.57;;
39728;SDS011;25402;42.004;23.088;2022-07-23T07:37:42;9.35;;;5.40;;
39728;SDS011;25402;42.004;23.088;2022-07-23T07:40:09;25.30;;;5.78;;
39728;SDS011;25402;42.004;23.088;2022-07-23T07:42:43;14.85;;;5.60;;
39728;SDS011;25402;42.004;23.088;2022-07-23T07:45:10;12.10;;;5.68;;
39728;SDS011;25402;42.004;23.088;2022-07-23T07:47:36;18.88;;;5.85;;
39728;SDS011;25402;42.004;23.088;2022-07-23T07:50:03;20.05;;;5.82;;
39728;SDS011;25402;42.004;23.088;2022-07-23T07:52:30;17.33;;;5.97;;
39728;SDS011;25402;42.004;23.088;2022-07-23T07:54:57;15.70;;;6.13;;
39728;SDS011;25402;42.004;23.088;2022-07-23T07:57:24;16.50;;;6.35;;
39728;SDS011;25402;42.004;23.088;2022-07-23T07:59:50;12.70;;;5.53;;
39728;SDS011;25402;42.004;23.088;2022-07-23T08:02:17;12.63;;;5.40;;
39728;SDS011;25402;42.004;23.088;2022-07-23T08:04:43;12.45;;;5.45;;
39728;SDS011;25402;42.004;23.088;2022-07-23T08:07:10;15.50;;;6.05;;
39728;SDS011;25402;42.004;23.088;2022-07-23T08:09:36;14.38;;;5.95;;
39728;SDS011;25402;42.004;23.088;2022-07-23T08:12:03;12.18;;;5.75;;
39728;SDS011;25402;42.004;23.088;2022-07-23T08:14:31;14.63;;;5.95;;
39728;SDS011;25402;42.004;23.088;2022-07-23T08:16:57;22.98;;;6.28;;
39728;SDS011;25402;42.004;23.088;2022-07-23T08:19:24;16.45;;;5.68;;
39728;SDS011;25402;42.004;23.088;2022-07-23T08:21:51;16.88;;;5.68;;
39728;SDS011;25402;42.004;23.088;2022-07-23T08:24:17;16.15;;;5.97;;
39728;SDS011;25402;42.004;23.088;2022-07-23T08:26:44;19.23;;;6.00;;
39728;SDS011;25402;42.004;23.088;2022-07-23T08:29:10;15.98;;;5.43;;
39728;SDS011;25402;42.004;23.088;2022-07-23T08:31:37;8.13;;;5.40;;
39728;SDS011;25402;42.004;23.088;2022-07-23T08:34:05;12.68;;;5.68;;
39728;SDS011;25402;42.004;23.088;2022-07-23T08:36:32;9.90;;;5.72;;
39728;SDS011;25402;42.004;23.088;2022-07-23T08:38:58;13.85;;;5.50;;
39728;SDS011;25402;42.004;23.088;2022-07-23T08:41:27;15.45;;;5.40;;
39728;SDS011;25402;42.004;23.088;2022-07-23T08:43:55;11.15;;;5.55;;
39728;SDS011;25402;42.004;23.088;2022-07-23T08:46:22;16.75;;;5.45;;
39728;SDS011;25402;42.004;23.088;2022-07-23T08:48:53;13.65;;;5.88;;
39728;SDS011;25402;42.004;23.088;2022-07-23T08:51:20;11.82;;;5.22;;
39728;SDS011;25402;42.004;23.088;2022-07-23T08:53:51;15.70;;;6.25;;
39728;SDS011;25402;42.004;23.088;2022-07-23T08:56:18;18.48;;;5.43;;
39728;SDS011;25402;42.004;23.088;2022-07-23T08:58:44;18.20;;;5.38;;
39728;SDS011;25402;42.004;23.088;2022-07-23T09:01:11;18.15;;;5.07;;
39728;SDS011;25402;42.004;23.088;2022-07-23T09:03:37;14.02;;;5.20;;
39728;SDS011;25402;42.004;23.088;2022-07-23T09:06:05;16.58;;;6.18;;
39728;SDS011;25402;42.004;23.088;2022-07-23T09:08:36;16.30;;;5.15;;
39728;SDS011;25402;42.004;23.088;2022-07-23T09:11:03;14.98;;;6.10;;
39728;SDS011;25402;42.004;23.088;2022-07-23T09:13:34;19.52;;;5.20;;
39728;SDS011;25402;42.004;23.088;2022-07-23T09:16:02;9.70;;;4.68;;
39728;SDS011;25402;42.004;23.088;2022-07-23T09:18:33;13.40;;;5.18;;
39728;SDS011;25402;42.004;23.088;2022-07-23T09:21:10;9.82;;;4.78;;
39728;SDS011;25402;42.004;23.088;2022-07-23T09:23:42;15.82;;;5.13;;
39728;SDS011;25402;42.004;23.088;2022-07-23T09:26:17;13.88;;;5.32;;
39728;SDS011;25402;42.004;23.088;2022-07-23T09:28:50;20.83;;;5.28;;
39728;SDS011;25402;42.004;23.088;2022-07-23T09:31:19;11.90;;;5.32;;
39728;SDS011;25402;42.004;23.088;2022-07-23T09:33:45;9.48;;;4.57;;
39728;SDS011;25402;42.004;23.088;2022-07-23T09:36:13;9.23;;;5.05;;
39728;SDS011;25402;42.004;23.088;2022-07-23T09:38:47;10.50;;;4.68;;
39728;SDS011;25402;42.004;23.088;2022-07-23T09:41:15;9.68;;;4.53;;
39728;SDS011;25402;42.004;23.088;2022-07-23T09:43:42;11.93;;;4.65;;
39728;SDS011;25402;42.004;23.088;2022-07-23T09:46:21;15.55;;;5.00;;
39728;SDS011;25402;42.004;23.088;2022-07-23T09:48:49;11.48;;;4.63;;
39728;SDS011;25402;42.004;23.088;2022-07-23T09:51:18;12.35;;;4.20;;
39728;SDS011;25402;42.004;23.088;2022-07-23T09:53:49;13.77;;;5.20;;
39728;SDS011;25402;42.004;23.088;2022-07-23T09:56:15;12.25;;;4.70;;
39728;SDS011;25402;42.004;23.088;2022-07-23T09:58:42;9.02;;;4.55;;
39728;SDS011;25402;42.004;23.088;2022-07-23T10:01:14;11.75;;;4.38;;
39728;SDS011;25402;42.004;23.088;2022-07-23T10:03:41;14.27;;;5.18;;
39728;SDS011;25402;42.004;23.088;2022-07-23T10:06:08;19.33;;;5.15;;
39728;SDS011;25402;42.004;23.088;2022-07-23T10:08:36;14.75;;;5.45;;
39728;SDS011;25402;42.004;23.088;2022-07-23T10:11:07;14.85;;;5.32;;
39728;SDS011;25402;42.004;23.088;2022-07-23T10:13:36;21.20;;;5.32;;
39728;SDS011;25402;42.004;23.088;2022-07-23T10:16:23;17.17;;;5.18;;
39728;SDS011;25402;42.004;23.088;2022-07-23T10:18:50;15.95;;;5.00;;
39728;SDS011;25402;42.004;23.088;2022-07-23T10:21:19;10.27;;;5.40;;
39728;SDS011;25402;42.004;23.088;2022-07-23T10:23:57;17.58;;;5.25;;
39728;SDS011;25402;42.004;23.088;2022-07-23T10:26:31;11.75;;;4.88;;
39728;SDS011;25402;42.004;23.088;2022-07-23T10:29:07;15.98;;;5.53;;
39728;SDS011;25402;42.004;23.088;2022-07-23T10:31:42;12.50;;;5.35;;
39728;SDS011;25402;42.004;23.088;2022-07-23T10:34:18;15.57;;;4.93;;
39728;SDS011;25402;42.004;23.088;2022-07-23T10:39:19;15.05;;;5.38;;
39728;SDS011;25402;42.004;23.088;2022-07-23T10:41:49;23.17;;;6.10;;
39728;SDS011;25402;42.004;23.088;2022-07-23T10:44:17;15.25;;;4.90;;
39728;SDS011;25402;42.004;23.088;2022-07-23T10:46:53;21.25;;;4.93;;
39728;SDS011;25402;42.004;23.088;2022-07-23T10:49:39;18.23;;;5.35;;
39728;SDS011;25402;42.004;23.088;2022-07-23T10:52:15;14.40;;;5.68;;
39728;SDS011;25402;42.004;23.088;2022-07-23T10:54:55;20.35;;;5.22;;
39728;SDS011;25402;42.004;23.088;2022-07-23T10:57:47;18.75;;;5.40;;
39728;SDS011;25402;42.004;23.088;2022-07-23T11:00:23;16.63;;;5.22;;
39728;SDS011;25402;42.004;23.088;2022-07-23T11:02:50;16.40;;;4.88;;
39728;SDS011;25402;42.004;23.088;2022-07-23T11:05:18;19.67;;;5.50;;
39728;SDS011;25402;42.004;23.088;2022-07-23T11:10:54;22.23;;;4.90;;
39728;SDS011;25402;42.004;23.088;2022-07-23T11:13:36;16.25;;;4.35;;
39728;SDS011;25402;42.004;23.088;2022-07-23T11:16:23;17.98;;;5.13;;
39728;SDS011;25402;42.004;23.088;2022-07-23T11:18:55;19.10;;;4.47;;
39728;SDS011;25402;42.004;23.088;2022-07-23T11:21:41;19.65;;;5.28;;
39728;SDS011;25402;42.004;23.088;2022-07-23T11:24:18;22.80;;;5.10;;
39728;SDS011;25402;42.004;23.088;2022-07-23T11:26:50;17.23;;;5.10;;
39728;SDS011;25402;42.004;23.088;2022-07-23T11:29:41;19.70;;;5.30;;
39728;SDS011;25402;42.004;23.088;2022-07-23T11:32:17;24.75;;;5.40;;
39728;SDS011;25402;42.004;23.088;2022-07-23T11:34:53;25.33;;;5.30;;
39728;SDS011;25402;42.004;23.088;2022-07-23T11:37:27;16.23;;;5.47;;
39728;SDS011;25402;42.004;23.088;2022-07-23T11:39:58;23.58;;;4.95;;
39728;SDS011;25402;42.004;23.088;2022-07-23T11:42:26;24.25;;;5.30;;
39728;SDS011;25402;42.004;23.088;2022-07-23T11:44:53;21.50;;;4.80;;
39728;SDS011;25402;42.004;23.088;2022-07-23T11:47:21;16.17;;;5.30;;
39728;SDS011;25402;42.004;23.088;2022-07-23T11:49:51;20.27;;;5.25;;
39728;SDS011;25402;42.004;23.088;2022-07-23T11:52:18;24.45;;;5.50;;
39728;SDS011;25402;42.004;23.088;2022-07-23T11:54:48;20.25;;;4.85;;
39728;SDS011;25402;42.004;23.088;2022-07-23T11:57:15;15.65;;;5.18;;
39728;SDS011;25402;42.004;23.088;2022-07-23T11:59:43;16.80;;;4.68;;
39728;SDS011;25402;42.004;23.088;2022-07-23T12:02:11;19.98;;;5.07;;
39728;SDS011;25402;42.004;23.088;2022-07-23T12:04:39;16.17;;;5.13;;
39728;SDS011;25402;42.004;23.088;2022-07-23T12:09:51;18.85;;;5.28;;
39728;SDS011;25402;42.004;23.088;2022-07-23T12:12:17;17.77;;;4.90;;
39728;SDS011;25402;42.004;23.088;2022-07-23T12:14:48;16.77;;;5.30;;
39728;SDS011;25402;42.004;23.088;2022-07-23T12:17:16;15.82;;;4.85;;
39728;SDS011;25402;42.004;23.088;2022-07-23T12:19:43;16.75;;;5.35;;
39728;SDS011;25402;42.004;23.088;2022-07-23T12:22:10;18.25;;;5.10;;
39728;SDS011;25402;42.004;23.088;2022-07-23T12:27:19;20.17;;;5.75;;
39728;SDS011;25402;42.004;23.088;2022-07-23T12:29:46;15.38;;;4.57;;
39728;SDS011;25402;42.004;23.088;2022-07-23T12:32:18;15.35;;;5.20;;
39728;SDS011;25402;42.004;23.088;2022-07-23T12:34:47;16.98;;;5.55;;
39728;SDS011;25402;42.004;23.088;2022-07-23T12:37:25;20.05;;;5.10;;
39728;SDS011;25402;42.004;23.088;2022-07-23T12:39:55;18.05;;;4.80;;
39728;SDS011;25402;42.004;23.088;2022-07-23T12:42:22;17.25;;;5.60;;
39728;SDS011;25402;42.004;23.088;2022-07-23T12:45:04;20.92;;;5.38;;
39728;SDS011;25402;42.004;23.088;2022-07-23T12:50:42;24.40;;;5.40;;
39728;SDS011;25402;42.004;23.088;2022-07-23T12:53:14;17.05;;;4.95;;
39728;SDS011;25402;42.004;23.088;2022-07-23T12:55:42;15.70;;;4.47;;
39728;SDS011;25402;42.004;23.088;2022-07-23T12:58:11;16.10;;;4.70;;
39728;SDS011;25402;42.004;23.088;2022-07-23T13:01:04;15.88;;;4.75;;
39728;SDS011;25402;42.004;23.088;2022-07-23T13:03:32;14.25;;;4.57;;
39728;SDS011;25402;42.004;23.088;2022-07-23T13:06:01;19.23;;;4.75;;
39728;SDS011;25402;42.004;23.088;2022-07-23T13:08:30;26.00;;;5.25;;
39728;SDS011;25402;42.004;23.088;2022-07-23T13:10:57;12.77;;;4.78;;
39728;SDS011;25402;42.004;23.088;2022-07-23T13:13:24;12.88;;;5.05;;
39728;SDS011;25402;42.004;23.088;2022-07-23T13:15:52;20.33;;;5.35;;
39728;SDS011;25402;42.004;23.088;2022-07-23T13:18:20;15.00;;;5.00;;
39728;SDS011;25402;42.004;23.088;2022-07-23T13:20:47;17.48;;;5.50;;
39728;SDS011;25402;42.004;23.088;2022-07-23T13:23:14;21.02;;;4.90;;
39728;SDS011;25402;42.004;23.088;2022-07-23T13:25:41;20.92;;;5.25;;
39728;SDS011;25402;42.004;23.088;2022-07-23T13:28:08;13.73;;;4.47;;
39728;SDS011;25402;42.004;23.088;2022-07-23T13:30:35;25.27;;;5.53;;
39728;SDS011;25402;42.004;23.088;2022-07-23T13:33:02;18.40;;;5.05;;
39728;SDS011;25402;42.004;23.088;2022-07-23T13:35:31;24.85;;;5.20;;
39728;SDS011;25402;42.004;23.088;2022-07-23T13:37:57;22.30;;;5.40;;
39728;SDS011;25402;42.004;23.088;2022-07-23T13:40:24;20.75;;;5.22;;
39728;SDS011;25402;42.004;23.088;2022-07-23T13:42:50;16.10;;;5.07;;
39728;SDS011;25402;42.004;23.088;2022-07-23T13:45:17;14.43;;;4.78;;
39728;SDS011;25402;42.004;23.088;2022-07-23T13:47:43;13.70;;;4.65;;
39728;SDS011;25402;42.004;23.088;2022-07-23T13:50:10;16.17;;;5.13;;
39728;SDS011;25402;42.004;23.088;2022-07-23T13:52:37;23.40;;;6.28;;
39728;SDS011;25402;42.004;23.088;2022-07-23T13:55:04;18.45;;;5.65;;
39728;SDS011;25402;42.004;23.088;2022-07-23T13:57:32;23.35;;;4.97;;
39728;SDS011;25402;42.004;23.088;2022-07-23T13:59:59;23.05;;;5.20;;
39728;SDS011;25402;42.004;23.088;2022-07-23T14:02:26;24.65;;;5.45;;
39728;SDS011;25402;42.004;23.088;2022-07-23T14:04:52;23.10;;;5.47;;
39728;SDS011;25402;42.004;23.088;2022-07-23T14:07:19;19.90;;;5.40;;
39728;SDS011;25402;42.004;23.088;2022-07-23T14:09:47;23.50;;;5.38;;
39728;SDS011;25402;42.004;23.088;2022-07-23T14:12:13;23.73;;;5.38;;
39728;SDS011;25402;42.004;23.088;2022-07-23T14:14:40;19.95;;;5.22;;
39728;SDS011;25402;42.004;23.088;2022-07-23T14:17:08;16.83;;;5.00;;
39728;SDS011;25402;42.004;23.088;2022-07-23T14:19:35;15.43;;;5.32;;
39728;SDS011;25402;42.004;23.088;2022-07-23T14:22:01;18.38;;;5.28;;
39728;SDS011;25402;42.004;23.088;2022-07-23T14:24:27;27.73;;;5.88;;
39728;SDS011;25402;42.004;23.088;2022-07-23T14:26:55;24.10;;;5.50;;
39728;SDS011;25402;42.004;23.088;2022-07-23T14:29:21;22.77;;;5.60;;
39728;SDS011;25402;42.004;23.088;2022-07-23T14:31:48;19.88;;;5.13;;
39728;SDS011;25402;42.004;23.088;2022-07-23T14:34:14;18.33;;;5.00;;
39728;SDS011;25402;42.004;23.088;2022-07-23T14:36:40;17.13;;;4.97;;
39728;SDS011;25402;42.004;23.088;2022-07-23T14:39:07;19.98;;;5.05;;
39728;SDS011;25402;42.004;23.088;2022-07-23T14:41:34;16.95;;;5.55;;
39728;SDS011;25402;42.004;23.088;2022-07-23T14:44:02;24.50;;;5.28;;